Time;durP1;ratioP1;P1;durP2;ratioP2;P2;SDS_P1;SDS_P2;PMS_P1;PMS_P2;Temp;Humidity;BMP_temperature;BMP_pressure;BME280_temperature;BME280_humidity;BME280_pressure;Samples;Min_cycle;Max_cycle;Signal;HPM_P1;HPM_P2
2022/08/29 05:00:46;;;;;;;6.90;6.30;;;18.30;97.20;;;;;;1720665;28;20702;-73
2022/08/29 05:01:37;;;;;;;6.65;6.00;;;18.30;97.20;;;;;;1721461;28;20668;-72
2022/08/29 05:02:29;;;;;;;6.93;5.87;;;18.30;97.20;;;;;;1721342;28;20611;-72
2022/08/29 05:03:21;;;;;;;8.18;6.15;;;18.30;97.20;;;;;;1721351;28;20675;-72
2022/08/29 05:04:13;;;;;;;8.05;6.00;;;18.30;97.20;;;;;;1721305;28;20221;-72
2022/08/29 05:05:05;;;;;;;7.55;6.85;;;18.30;97.20;;;;;;1721266;28;20704;-72
2022/08/29 05:05:57;;;;;;;6.38;5.88;;;18.30;97.20;;;;;;1719150;28;20284;-72
2022/08/29 05:06:48;;;;;;;6.43;5.82;;;18.30;97.20;;;;;;1719094;28;20209;-72
2022/08/29 05:07:41;;;;;;;6.43;5.93;;;18.20;97.20;;;;;;1720931;28;20213;-72
2022/08/29 05:08:33;;;;;;;7.40;6.05;;;18.20;97.20;;;;;;1721175;28;20197;-72
2022/08/29 05:09:25;;;;;;;6.63;6.00;;;18.20;97.20;;;;;;1721297;28;20197;-72
2022/08/29 05:10:20;;;;;;;6.32;5.72;;;18.20;97.20;;;;;;1721209;28;20197;-72
2022/08/29 05:11:15;;;;;;;6.22;5.72;;;18.20;97.20;;;;;;1721188;28;20205;-73
2022/08/29 05:12:06;;;;;;;6.82;6.22;;;18.30;97.20;;;;;;1721284;28;20212;-72
2022/08/29 05:12:58;;;;;;;6.53;5.95;;;18.30;97.20;;;;;;1720785;28;20555;-73
2022/08/29 05:13:50;;;;;;;10.07;6.53;;;18.30;97.20;;;;;;1721193;28;20232;-72
2022/08/29 05:14:42;;;;;;;7.03;6.38;;;18.30;97.20;;;;;;1722652;28;20209;-72
2022/08/29 05:15:33;;;;;;;7.40;6.18;;;18.30;97.20;;;;;;1727807;28;20213;-73
2022/08/29 05:16:28;;;;;;;6.70;6.13;;;18.30;97.20;;;;;;1727662;28;20204;-74
2022/08/29 05:17:19;;;;;;;5.95;5.55;;;18.30;97.20;;;;;;1721118;28;20197;-74
2022/08/29 05:18:11;;;;;;;6.97;6.17;;;18.30;97.20;;;;;;1725174;28;20201;-72
2022/08/29 05:19:04;;;;;;;6.90;6.28;;;18.30;97.20;;;;;;1727330;28;20208;-73
2022/08/29 05:19:56;;;;;;;6.60;6.00;;;18.30;97.20;;;;;;1726453;28;20219;-73
2022/08/29 05:20:48;;;;;;;7.10;6.43;;;18.30;97.20;;;;;;1727162;28;20200;-73
2022/08/29 05:21:42;;;;;;;7.05;6.25;;;18.30;97.20;;;;;;1727440;28;20714;-73
2022/08/29 05:22:33;;;;;;;6.72;6.07;;;18.30;97.20;;;;;;1725827;28;20208;-73
2022/08/29 05:23:25;;;;;;;6.97;6.05;;;18.30;97.20;;;;;;1727482;28;20204;-73
2022/08/29 05:24:16;;;;;;;6.22;5.68;;;18.30;97.20;;;;;;1727277;28;20205;-73
2022/08/29 05:25:08;;;;;;;6.73;6.13;;;18.40;97.20;;;;;;1727299;28;20288;-72
2022/08/29 05:26:01;;;;;;;6.20;5.70;;;18.40;97.20;;;;;;1727662;28;20200;-73
2022/08/29 05:26:53;;;;;;;6.10;5.60;;;18.40;97.20;;;;;;1726660;28;20196;-73
2022/08/29 05:27:45;;;;;;;7.00;6.30;;;18.40;97.20;;;;;;1727123;28;20232;-73
2022/08/29 05:28:36;;;;;;;6.75;6.05;;;18.40;97.20;;;;;;1727490;28;20581;-73
2022/08/29 05:29:28;;;;;;;7.53;6.82;;;18.40;97.20;;;;;;1727529;28;20247;-73
2022/08/29 05:30:19;;;;;;;7.03;5.95;;;18.40;97.20;;;;;;1727645;28;20667;-73
2022/08/29 05:31:13;;;;;;;6.55;6.05;;;18.50;97.20;;;;;;1727303;28;20196;-73
2022/08/29 05:32:07;;;;;;;6.93;6.22;;;18.50;97.20;;;;;;1727682;28;20276;-73
2022/08/29 05:32:58;;;;;;;8.07;6.70;;;18.50;97.20;;;;;;1727708;28;20197;-72
2022/08/29 05:33:50;;;;;;;8.57;7.13;;;18.50;97.20;;;;;;1727459;28;20581;-72
2022/08/29 05:34:42;;;;;;;6.80;6.25;;;18.50;97.20;;;;;;1727719;28;20209;-72
2022/08/29 05:35:34;;;;;;;7.05;6.35;;;18.50;97.20;;;;;;1727650;28;20208;-73
2022/08/29 05:36:25;;;;;;;8.57;7.10;;;18.50;97.20;;;;;;1726452;28;20566;-73
2022/08/29 05:37:20;;;;;;;8.02;6.40;;;18.50;97.20;;;;;;1726369;28;20208;-72
2022/08/29 05:38:11;;;;;;;8.15;7.30;;;18.50;97.20;;;;;;1727386;28;20279;-72
2022/08/29 05:39:03;;;;;;;7.60;6.90;;;18.50;97.20;;;;;;1727534;28;20200;-73
2022/08/29 05:39:54;;;;;;;8.15;6.70;;;18.60;97.20;;;;;;1727530;28;20440;-73
2022/08/29 05:40:46;;;;;;;7.87;7.03;;;18.60;97.20;;;;;;1727552;28;20716;-73
2022/08/29 05:41:38;;;;;;;7.65;6.95;;;18.60;97.20;;;;;;1727590;28;20448;-73
2022/08/29 05:42:29;;;;;;;7.30;6.65;;;18.60;97.20;;;;;;1727474;28;20343;-73
2022/08/29 05:43:20;;;;;;;9.25;7.10;;;18.60;97.20;;;;;;1727545;28;20291;-73
2022/08/29 05:44:12;;;;;;;7.60;6.90;;;18.60;97.20;;;;;;1727370;28;20699;-73
2022/08/29 05:45:03;;;;;;;8.02;7.22;;;18.60;97.20;;;;;;1727414;28;20203;-73
2022/08/29 05:46:02;;;;;;;8.43;7.22;;;18.60;97.20;;;;;;1727511;28;20189;-73
2022/08/29 05:46:53;;;;;;;8.00;6.53;;;18.60;97.20;;;;;;1720525;28;20197;-73
2022/08/29 05:47:46;;;;;;;7.60;6.90;;;18.60;97.20;;;;;;1718460;28;20205;-73
2022/08/29 05:48:40;;;;;;;7.40;6.80;;;18.60;97.20;;;;;;1720695;28;20448;-72
2022/08/29 05:49:31;;;;;;;7.00;6.40;;;18.60;97.20;;;;;;1722829;28;20699;-73
2022/08/29 05:50:23;;;;;;;7.60;7.00;;;18.70;97.20;;;;;;1727019;28;20204;-73
2022/08/29 05:51:16;;;;;;;7.45;6.75;;;18.60;97.20;;;;;;1725758;28;20268;-72
2022/08/29 05:52:07;;;;;;;8.80;8.00;;;18.70;97.20;;;;;;1723716;28;20205;-73
2022/08/29 05:52:59;;;;;;;8.02;7.30;;;18.70;97.20;;;;;;1720766;28;20202;-73
2022/08/29 05:53:50;;;;;;;8.07;7.32;;;18.70;97.20;;;;;;1720577;28;20232;-73
2022/08/29 05:54:42;;;;;;;7.78;6.80;;;18.70;97.20;;;;;;1720693;28;20243;-73
2022/08/29 05:55:37;;;;;;;7.22;6.53;;;18.70;97.20;;;;;;1720651;28;20209;-73
2022/08/29 05:56:29;;;;;;;8.48;7.40;;;18.70;97.20;;;;;;1720630;28;20201;-73
2022/08/29 05:57:22;;;;;;;7.22;6.63;;;18.80;97.20;;;;;;1719850;28;20228;-73
2022/08/29 05:58:14;;;;;;;9.60;6.70;;;18.80;97.20;;;;;;1720704;28;20205;-73
2022/08/29 05:59:04;;;;;;;7.70;7.00;;;18.80;97.20;;;;;;1720530;28;20212;-72
2022/08/29 05:59:56;;;;;;;9.47;6.60;;;18.80;97.20;;;;;;1720545;28;20292;-75
2022/08/29 06:00:48;;;;;;;8.00;6.63;;;18.90;97.20;;;;;;1720606;28;20209;-75
2022/08/29 06:01:40;;;;;;;7.75;7.15;;;18.90;97.20;;;;;;1720722;28;20205;-75
2022/08/29 06:02:31;;;;;;;8.65;7.85;;;18.90;97.20;;;;;;1725799;28;20215;-74
2022/08/29 06:03:24;;;;;;;7.80;7.10;;;18.90;97.20;;;;;;1727360;28;20239;-75
2022/08/29 06:04:15;;;;;;;7.93;7.22;;;19.00;97.20;;;;;;1727345;28;20581;-75
2022/08/29 06:05:07;;;;;;;8.47;7.03;;;19.00;97.20;;;;;;1727406;28;20568;-75
2022/08/29 06:05:57;;;;;;;7.60;6.90;;;19.00;97.20;;;;;;1727367;28;20204;-75
2022/08/29 06:06:50;;;;;;;7.90;7.10;;;19.00;97.20;;;;;;1725308;28;20287;-76
2022/08/29 06:07:41;;;;;;;7.70;7.00;;;19.10;97.20;;;;;;1726833;28;20577;-74
2022/08/29 06:08:32;;;;;;;8.20;7.43;;;19.10;97.20;;;;;;1720531;28;20586;-74
2022/08/29 06:09:24;;;;;;;8.90;8.10;;;19.10;97.20;;;;;;1720496;28;20669;-75
2022/08/29 06:10:15;;;;;;;7.93;7.13;;;19.10;97.20;;;;;;1720829;28;20272;-76
2022/08/29 06:11:13;;;;;;;8.32;7.60;;;19.10;97.20;;;;;;1724599;28;20208;-76
2022/08/29 06:12:06;;;;;;;8.18;7.43;;;19.10;97.20;;;;;;1725829;28;20208;-78
2022/08/29 06:12:57;;;;;;;9.38;8.48;;;19.10;97.20;;;;;;1723351;28;20208;-78
2022/08/29 06:13:49;;;;;;;9.13;8.23;;;19.20;97.20;;;;;;1720079;28;20312;-78
2022/08/29 06:14:40;;;;;;;9.70;7.93;;;19.20;97.20;;;;;;1720820;28;20211;-76
2022/08/29 06:15:32;;;;;;;9.32;8.43;;;19.20;97.20;;;;;;1720847;28;20675;-74
2022/08/29 06:16:27;;;;;;;8.60;7.75;;;19.20;97.20;;;;;;1720857;28;20266;-75
2022/08/29 06:17:19;;;;;;;8.70;7.90;;;19.20;97.20;;;;;;1725930;28;20225;-75
2022/08/29 06:18:10;;;;;;;8.73;7.90;;;19.20;97.20;;;;;;1726215;28;20197;-75
2022/08/29 06:19:03;;;;;;;8.23;7.53;;;19.30;97.20;;;;;;1727279;28;20204;-74
2022/08/29 06:19:54;;;;;;;9.10;8.30;;;19.30;97.20;;;;;;1727312;28;20458;-74
2022/08/29 06:20:46;;;;;;;8.93;8.10;;;19.30;97.20;;;;;;1727555;28;20231;-74
2022/08/29 06:21:37;;;;;;;9.65;8.65;;;19.30;97.20;;;;;;1727582;28;20208;-74
2022/08/29 06:22:28;;;;;;;10.00;7.80;;;19.30;97.20;;;;;;1727466;28;20687;-74
2022/08/29 06:23:20;;;;;;;9.27;8.48;;;19.40;97.20;;;;;;1727522;28;20207;-75
2022/08/29 06:24:11;;;;;;;9.50;8.60;;;19.40;97.20;;;;;;1720695;28;20228;-76
2022/08/29 06:25:03;;;;;;;11.63;9.10;;;19.40;97.20;;;;;;1720739;28;20696;-75
2022/08/29 06:25:54;;;;;;;10.25;9.32;;;19.40;97.20;;;;;;1720804;28;20569;-76
2022/08/29 06:26:46;;;;;;;9.02;8.27;;;19.40;97.20;;;;;;1720698;28;20197;-76
2022/08/29 06:27:37;;;;;;;9.10;7.80;;;19.40;97.20;;;;;;1720458;28;20212;-76
2022/08/29 06:28:29;;;;;;;8.80;8.10;;;19.40;97.20;;;;;;1720545;28;20208;-76
2022/08/29 06:29:20;;;;;;;9.52;8.73;;;19.40;97.20;;;;;;1725991;28;20196;-73
2022/08/29 06:30:13;;;;;;;8.67;7.87;;;19.40;97.20;;;;;;1726750;28;20258;-74
2022/08/29 06:31:05;;;;;;;9.35;8.48;;;19.50;97.20;;;;;;1726981;28;20193;-75
2022/08/29 06:31:58;;;;;;;9.95;8.95;;;19.50;97.20;;;;;;1727529;28;20220;-76
2022/08/29 06:32:48;;;;;;;10.60;9.07;;;19.50;97.20;;;;;;1727437;28;20204;-76
2022/08/29 06:33:41;;;;;;;11.83;9.17;;;19.60;97.20;;;;;;1727420;28;20287;-76
2022/08/29 06:34:33;;;;;;;12.77;10.18;;;19.60;97.20;;;;;;1727402;28;20829;-76
2022/08/29 06:35:25;;;;;;;11.48;10.30;;;19.60;97.20;;;;;;1727441;28;20599;-76
2022/08/29 06:36:16;;;;;;;11.10;10.13;;;19.70;97.20;;;;;;1727469;28;20212;-75
2022/08/29 06:37:08;;;;;;;11.05;10.02;;;19.70;97.20;;;;;;1727292;28;20200;-75
2022/08/29 06:37:59;;;;;;;9.80;9.00;;;19.70;97.20;;;;;;1726762;28;20204;-77
2022/08/29 06:38:50;;;;;;;12.93;9.27;;;19.80;97.20;;;;;;1727213;28;20236;-76
2022/08/29 06:39:41;;;;;;;11.35;9.95;;;19.80;97.20;;;;;;1727454;28;20442;-75
2022/08/29 06:40:33;;;;;;;11.73;10.73;;;19.80;97.20;;;;;;1727621;28;20203;-75
2022/08/29 06:41:25;;;;;;;14.32;12.90;;;19.90;97.20;;;;;;1727430;28;20204;-75
2022/08/29 06:42:17;;;;;;;13.80;12.60;;;19.90;97.20;;;;;;1726411;28;20189;-74
2022/08/29 06:43:08;;;;;;;14.40;13.00;;;19.90;97.20;;;;;;1727070;28;20201;-75
2022/08/29 06:44:00;;;;;;;12.70;11.50;;;19.90;97.20;;;;;;1727365;28;20220;-75
2022/08/29 06:44:51;;;;;;;13.25;11.95;;;19.90;97.20;;;;;;1727247;28;20196;-74
2022/08/29 06:45:44;;;;;;;13.02;11.93;;;19.90;97.20;;;;;;1727386;28;20286;-74
2022/08/29 06:46:37;;;;;;;14.25;12.90;;;19.90;97.20;;;;;;1727369;28;20214;-76
2022/08/29 06:47:29;;;;;;;13.00;11.80;;;19.90;97.20;;;;;;1727135;28;20197;-76
2022/08/29 06:48:19;;;;;;;13.23;11.95;;;19.90;97.20;;;;;;1727439;28;20216;-77
2022/08/29 06:49:13;;;;;;;14.60;13.10;;;19.90;97.20;;;;;;1727227;28;20687;-76
2022/08/29 06:50:06;;;;;;;16.67;12.55;;;19.90;97.20;;;;;;1726933;28;20205;-76
2022/08/29 06:51:01;;;;;;;13.63;12.15;;;20.00;97.20;;;;;;1726848;28;20196;-76
2022/08/29 06:51:52;;;;;;;12.85;11.65;;;20.00;97.20;;;;;;1726727;28;20660;-76
2022/08/29 06:52:44;;;;;;;12.63;11.43;;;20.00;97.20;;;;;;1727391;28;20548;-77
2022/08/29 06:53:35;;;;;;;14.23;12.75;;;20.00;97.20;;;;;;1727400;28;20443;-77
2022/08/29 06:54:28;;;;;;;13.23;11.87;;;20.00;97.20;;;;;;1727385;28;20201;-76
2022/08/29 06:55:19;;;;;;;15.77;12.00;;;20.10;97.20;;;;;;1727439;28;20686;-76
2022/08/29 06:56:11;;;;;;;12.30;11.10;;;20.10;97.20;;;;;;1727511;28;20888;-76
2022/08/29 06:57:01;;;;;;;13.60;12.30;;;20.20;97.20;;;;;;1727299;28;20211;-76
2022/08/29 06:57:53;;;;;;;12.13;11.03;;;20.20;97.20;;;;;;1727176;28;20694;-77
2022/08/29 06:58:44;;;;;;;12.05;11.05;;;20.20;97.20;;;;;;1723927;28;20205;-75
2022/08/29 06:59:36;;;;;;;12.40;11.27;;;20.30;97.20;;;;;;1725855;28;20683;-76
2022/08/29 07:00:27;;;;;;;11.93;10.82;;;20.30;97.20;;;;;;1727253;28;20209;-76
2022/08/29 07:01:22;;;;;;;11.60;10.60;;;20.30;97.20;;;;;;1727173;28;20212;-76
2022/08/29 07:02:12;;;;;;;12.00;10.98;;;20.40;97.20;;;;;;1726835;28;20234;-76
2022/08/29 07:03:04;;;;;;;13.20;12.00;;;20.40;97.20;;;;;;1722920;28;20223;-76
2022/08/29 07:03:57;;;;;;;14.55;12.93;;;20.50;97.20;;;;;;1725982;28;20227;-78
2022/08/29 07:04:49;;;;;;;13.85;12.48;;;20.50;97.20;;;;;;1726900;28;20206;-77
2022/08/29 07:05:41;;;;;;;13.68;12.48;;;20.60;97.20;;;;;;1726616;28;20204;-77
2022/08/29 07:06:33;;;;;;;13.80;12.40;;;20.60;97.20;;;;;;1726464;28;20207;-76
2022/08/29 07:07:23;;;;;;;15.60;11.95;;;20.60;97.20;;;;;;1726174;28;20698;-77
2022/08/29 07:08:15;;;;;;;13.47;12.10;;;20.70;97.20;;;;;;1727218;28;20687;-76
2022/08/29 07:09:07;;;;;;;13.85;12.02;;;20.70;97.20;;;;;;1719780;28;20232;-76
2022/08/29 07:09:59;;;;;;;13.00;11.80;;;20.80;97.20;;;;;;1719994;28;20716;-77
2022/08/29 07:10:50;;;;;;;12.98;11.88;;;20.80;97.20;;;;;;1720528;28;20204;-77
2022/08/29 07:11:42;;;;;;;13.02;11.73;;;20.80;97.20;;;;;;1721852;28;20229;-77
2022/08/29 07:12:33;;;;;;;16.50;14.77;;;20.90;97.20;;;;;;1727081;28;20663;-76
2022/08/29 07:13:25;;;;;;;15.75;14.15;;;20.90;97.20;;;;;;1726829;28;20208;-76
2022/08/29 07:14:16;;;;;;;16.15;14.40;;;21.00;97.20;;;;;;1726637;28;20196;-75
2022/08/29 07:15:08;;;;;;;15.67;14.03;;;21.00;97.20;;;;;;1727166;28;20291;-75
2022/08/29 07:15:59;;;;;;;16.75;14.35;;;21.00;97.20;;;;;;1727331;28;20211;-75
2022/08/29 07:16:51;;;;;;;20.53;13.67;;;21.10;97.20;;;;;;1727293;28;20243;-75
2022/08/29 07:17:42;;;;;;;16.25;14.20;;;21.10;97.20;;;;;;1727041;28;20487;-75
2022/08/29 07:18:34;;;;;;;15.60;14.00;;;21.10;97.20;;;;;;1727245;28;20291;-74
2022/08/29 07:19:26;;;;;;;16.50;12.82;;;21.10;97.20;;;;;;1727302;28;20200;-75
2022/08/29 07:20:18;;;;;;;15.52;12.98;;;21.20;97.20;;;;;;1727367;28;20204;-75
2022/08/29 07:21:13;;;;;;;17.98;14.80;;;21.20;97.20;;;;;;1727276;28;20201;-75
2022/08/29 07:22:06;;;;;;;16.52;14.10;;;21.20;97.20;;;;;;1727264;28;20675;-75
2022/08/29 07:22:57;;;;;;;15.18;13.57;;;21.30;97.20;;;;;;1727076;28;20286;-75
2022/08/29 07:23:49;;;;;;;14.40;13.10;;;21.30;97.20;;;;;;1727185;28;20271;-75
2022/08/29 07:24:40;;;;;;;16.38;14.77;;;21.30;97.20;;;;;;1727055;28;20213;-75
2022/08/29 07:25:32;;;;;;;17.93;14.27;;;21.30;97.20;;;;;;1727256;28;20300;-75
2022/08/29 07:26:25;;;;;;;15.00;13.60;;;21.20;97.20;;;;;;1727300;28;20201;-74
2022/08/29 07:27:17;;;;;;;18.63;14.32;;;21.20;97.20;;;;;;1726966;28;20652;-75
2022/08/29 07:28:08;;;;;;;17.20;14.93;;;21.20;97.20;;;;;;1727170;28;20209;-75
2022/08/29 07:29:03;;;;;;;16.30;14.13;;;21.20;97.20;;;;;;1727156;28;20295;-75
2022/08/29 07:29:53;;;;;;;14.70;13.20;;;21.30;97.20;;;;;;1728612;28;20239;-75
2022/08/29 07:30:45;;;;;;;13.27;12.07;;;21.30;97.20;;;;;;1728418;28;20201;-75
2022/08/29 07:31:38;;;;;;;14.32;13.05;;;21.30;97.20;;;;;;1728396;28;20447;-76
2022/08/29 07:32:29;;;;;;;17.55;15.00;;;21.40;97.20;;;;;;1728442;28;20565;-77
2022/08/29 07:33:20;;;;;;;15.80;13.10;;;21.40;97.20;;;;;;1728250;28;20204;-76
2022/08/29 07:34:12;;;;;;;19.10;15.53;;;21.40;97.20;;;;;;1728546;28;20312;-77
2022/08/29 07:35:04;;;;;;;16.67;14.80;;;21.50;97.20;;;;;;1728557;28;20821;-77
2022/08/29 07:35:56;;;;;;;16.90;15.18;;;21.50;97.20;;;;;;1728623;28;20199;-77
2022/08/29 07:36:48;;;;;;;16.08;14.38;;;21.50;97.20;;;;;;1728449;28;20782;-77
2022/08/29 07:37:40;;;;;;;17.38;14.57;;;21.60;97.20;;;;;;1728205;28;20711;-77
2022/08/29 07:38:31;;;;;;;17.40;15.57;;;21.60;97.20;;;;;;1728539;28;20702;-77
2022/08/29 07:39:23;;;;;;;17.17;14.77;;;21.60;97.20;;;;;;1728555;28;20675;-76
2022/08/29 07:40:16;;;;;;;18.00;16.20;;;21.70;97.20;;;;;;1728611;28;20251;-77
2022/08/29 07:41:10;;;;;;;16.00;14.52;;;21.70;97.20;;;;;;1728562;28;20201;-77
2022/08/29 07:42:03;;;;;;;16.67;15.07;;;21.70;97.20;;;;;;1728453;28;20201;-77
2022/08/29 07:42:54;;;;;;;17.80;15.75;;;21.80;97.20;;;;;;1728083;28;20200;-76
2022/08/29 07:43:45;;;;;;;16.40;14.80;;;21.80;97.20;;;;;;1721599;28;20197;-77
2022/08/29 07:44:37;;;;;;;15.43;13.83;;;21.80;97.20;;;;;;1721814;28;20350;-77
2022/08/29 07:45:29;;;;;;;16.85;15.25;;;21.90;97.20;;;;;;1725293;28;20478;-76
2022/08/29 07:46:21;;;;;;;18.42;14.70;;;21.90;97.20;;;;;;1728558;28;20294;-77
2022/08/29 07:47:12;;;;;;;17.83;15.98;;;21.90;97.20;;;;;;1728199;28;20204;-75
2022/08/29 07:48:05;;;;;;;18.00;16.20;;;22.00;97.20;;;;;;1727986;28;20189;-75
2022/08/29 07:48:57;;;;;;;16.25;14.50;;;22.00;97.20;;;;;;1727894;28;20243;-75
2022/08/29 07:49:49;;;;;;;15.93;14.43;;;22.00;97.20;;;;;;1728248;28;20267;-75
2022/08/29 07:50:41;;;;;;;15.23;13.73;;;22.10;97.20;;;;;;1728369;28;20287;-75
2022/08/29 07:51:33;;;;;;;15.70;14.30;;;22.10;97.20;;;;;;1728355;28;20706;-74
2022/08/29 07:52:26;;;;;;;17.38;15.68;;;22.10;97.20;;;;;;1728456;28;20265;-75
2022/08/29 07:53:20;;;;;;;15.68;14.05;;;22.20;97.20;;;;;;1728579;28;20656;-75
2022/08/29 07:54:15;;;;;;;15.35;13.60;;;22.20;97.20;;;;;;1728387;28;20281;-77
2022/08/29 07:55:11;;;;;;;16.20;14.63;;;22.20;97.20;;;;;;1728403;28;20197;-77
2022/08/29 07:56:05;;;;;;;15.18;13.68;;;22.30;97.20;;;;;;1728489;28;20205;-77
2022/08/29 07:56:58;;;;;;;16.23;14.50;;;22.30;97.20;;;;;;1728455;28;20203;-77
2022/08/29 07:57:50;;;;;;;17.33;15.25;;;22.30;97.20;;;;;;1727903;28;20284;-77
2022/08/29 07:58:47;;;;;;;16.92;14.85;;;22.40;97.20;;;;;;1728293;28;20200;-76
2022/08/29 07:59:45;;;;;;;16.05;14.35;;;22.40;97.20;;;;;;1728583;28;20219;-77
2022/08/29 08:00:42;;;;;;;16.95;15.25;;;22.50;97.20;;;;;;1728248;28;20193;-74
2022/08/29 08:01:36;;;;;;;17.30;15.48;;;22.50;97.20;;;;;;1728453;28;20209;-74
2022/08/29 08:02:32;;;;;;;16.52;15.00;;;22.60;97.20;;;;;;1727886;28;20208;-74
2022/08/29 08:03:36;;;;;;;16.92;15.10;;;22.60;97.20;;;;;;1728406;28;20212;-75
2022/08/29 08:04:30;;;;;;;17.73;15.82;;;22.70;97.20;;;;;;1728479;28;20197;-77
2022/08/29 08:05:25;;;;;;;17.98;15.38;;;22.70;97.20;;;;;;1728536;28;20288;-77
2022/08/29 08:06:46;;;;;;;15.88;14.23;;;22.70;97.20;;;;;;1723639;28;20659;-78
2022/08/29 08:07:45;;;;;;;13.85;12.43;;;22.80;97.20;;;;;;1727489;28;20291;-77
2022/08/29 08:08:44;;;;;;;14.52;12.98;;;22.80;97.20;;;;;;1728187;28;20284;-75
2022/08/29 08:09:39;;;;;;;17.52;12.63;;;22.90;97.20;;;;;;1728103;28;20251;-74
2022/08/29 08:10:33;;;;;;;15.98;14.25;;;22.90;97.20;;;;;;1725895;28;20205;-77
2022/08/29 08:11:38;;;;;;;15.18;13.57;;;23.00;97.20;;;;;;1717454;28;20627;-77
2022/08/29 08:12:30;;;;;;;17.88;14.88;;;23.00;97.20;;;;;;1721764;28;20672;-74
2022/08/29 08:13:37;;;;;;;18.45;13.52;;;23.00;97.20;;;;;;1721582;28;20201;-74
2022/08/29 08:14:31;;;;;;;13.63;12.30;;;23.10;97.20;;;;;;1721962;28;20248;-74
2022/08/29 08:15:32;;;;;;;11.82;10.25;;;23.10;97.20;;;;;;1722290;28;20263;-74
2022/08/29 08:17:34;;;;;;;10.85;9.82;;;23.20;97.20;;;;;;1721428;28;20201;-74
2022/08/29 08:18:33;;;;;;;13.35;9.20;;;23.20;97.20;;;;;;1720821;28;20206;-78
2022/08/29 08:19:36;;;;;;;11.35;10.20;;;23.30;97.20;;;;;;1722844;28;20244;-78
2022/08/29 08:20:34;;;;;;;10.63;9.73;;;23.30;97.20;;;;;;1725739;28;20224;-78
2022/08/29 08:21:31;;;;;;;10.50;9.40;;;23.40;97.20;;;;;;1725879;28;20325;-78
2022/08/29 08:22:33;;;;;;;9.93;8.77;;;23.40;97.20;;;;;;1721742;28;20568;-76
2022/08/29 08:23:26;;;;;;;11.73;9.50;;;23.50;97.20;;;;;;1721970;28;20665;-76
2022/08/29 08:24:24;;;;;;;10.40;9.32;;;23.50;97.20;;;;;;1725949;28;20570;-76
2022/08/29 08:25:17;;;;;;;11.45;9.30;;;23.50;97.20;;;;;;1728272;28;20200;-76
2022/08/29 08:26:10;;;;;;;10.60;9.50;;;23.60;97.20;;;;;;1728113;28;20554;-76
2022/08/29 08:27:05;;;;;;;10.45;9.40;;;23.70;97.20;;;;;;1728115;28;20204;-75
2022/08/29 08:27:57;;;;;;;10.25;9.13;;;23.70;97.20;;;;;;1727757;28;20262;-75
2022/08/29 08:28:50;;;;;;;9.82;8.85;;;23.80;97.20;;;;;;1728053;28;20240;-76
2022/08/29 08:29:43;;;;;;;11.45;9.40;;;23.80;97.20;;;;;;1728221;28;20663;-76
2022/08/29 08:30:34;;;;;;;10.90;9.82;;;23.90;97.20;;;;;;1727911;28;20203;-76
2022/08/29 08:31:26;;;;;;;9.30;8.43;;;23.90;97.20;;;;;;1727585;28;20203;-76
2022/08/29 08:32:17;;;;;;;9.68;8.77;;;24.00;97.20;;;;;;1728203;28;20271;-76
2022/08/29 08:33:11;;;;;;;10.27;9.37;;;24.00;97.20;;;;;;1728221;28;20204;-75
2022/08/29 08:34:03;;;;;;;11.25;9.57;;;24.10;97.20;;;;;;1728049;28;20555;-75
2022/08/29 08:34:55;;;;;;;10.35;9.35;;;24.10;97.20;;;;;;1728183;28;20262;-75
2022/08/29 08:35:46;;;;;;;10.80;9.90;;;24.20;97.20;;;;;;1727442;28;20258;-76
2022/08/29 08:36:41;;;;;;;10.67;9.67;;;24.20;97.20;;;;;;1728263;28;20192;-76
2022/08/29 08:37:32;;;;;;;10.75;8.45;;;24.30;97.20;;;;;;1727932;28;20458;-75
2022/08/29 08:38:24;;;;;;;9.10;8.30;;;24.30;97.20;;;;;;1728021;28;20319;-76
2022/08/29 08:39:16;;;;;;;9.18;7.45;;;24.30;97.20;;;;;;1728087;28;20850;-75
2022/08/29 08:40:09;;;;;;;10.55;6.80;;;24.40;97.20;;;;;;1727799;28;20607;-75
2022/08/29 08:41:09;;;;;;;8.25;7.55;;;24.40;97.20;;;;;;1727548;28;20246;-76
2022/08/29 08:42:12;;;;;;;10.48;8.82;;;24.50;97.20;;;;;;1721196;28;20197;-76
2022/08/29 08:43:07;;;;;;;8.93;8.02;;;24.50;97.20;;;;;;1721412;28;20236;-76
2022/08/29 08:44:04;;;;;;;9.50;8.35;;;24.60;97.20;;;;;;1721305;28;20252;-76
2022/08/29 08:45:04;;;;;;;10.95;9.95;;;24.60;97.20;;;;;;1721424;28;20218;-76
2022/08/29 08:45:56;;;;;;;9.50;8.20;;;24.60;97.20;;;;;;1721372;28;20260;-76
2022/08/29 08:46:51;;;;;;;9.50;8.48;;;24.60;97.20;;;;;;1721265;28;20216;-76
2022/08/29 08:47:48;;;;;;;8.98;8.13;;;24.70;97.20;;;;;;1721055;28;20585;-76
2022/08/29 08:48:40;;;;;;;10.07;9.18;;;24.70;97.20;;;;;;1721362;28;20205;-76
2022/08/29 08:49:38;;;;;;;7.35;6.65;;;24.70;97.20;;;;;;1721367;28;20542;-76
2022/08/29 08:50:38;;;;;;;9.93;8.93;;;24.80;97.20;;;;;;1721385;28;20201;-76
2022/08/29 08:51:34;;;;;;;9.60;8.70;;;24.80;97.20;;;;;;1727104;28;20219;-76
2022/08/29 08:52:33;;;;;;;10.00;9.00;;;24.90;97.20;;;;;;1728071;28;20204;-78
2022/08/29 08:53:32;;;;;;;9.30;8.48;;;24.90;97.20;;;;;;1728084;28;20196;-78
2022/08/29 08:54:28;;;;;;;9.82;8.88;;;24.90;97.20;;;;;;1728113;28;20687;-78
2022/08/29 08:55:27;;;;;;;14.30;9.43;;;25.00;97.20;;;;;;1728075;28;20700;-79
2022/08/29 08:56:26;;;;;;;12.38;9.70;;;25.00;97.20;;;;;;1728123;28;20585;-78
2022/08/29 08:57:17;;;;;;;10.27;9.27;;;25.10;97.20;;;;;;1727791;28;20208;-79
2022/08/29 08:58:15;;;;;;;11.57;10.47;;;25.10;97.20;;;;;;1727959;28;20315;-78
2022/08/29 08:59:14;;;;;;;10.35;9.27;;;25.10;97.20;;;;;;1727910;28;20443;-76
2022/08/29 09:00:09;;;;;;;11.15;10.00;;;25.20;97.20;;;;;;1727833;28;20200;-76
2022/08/29 09:01:05;;;;;;;9.55;8.55;;;25.20;97.20;;;;;;1727412;28;20200;-76
2022/08/29 09:02:00;;;;;;;13.60;10.35;;;25.30;97.20;;;;;;1720969;28;20201;-76
2022/08/29 09:03:03;;;;;;;10.15;9.15;;;25.30;97.20;;;;;;1721306;28;20201;-76
2022/08/29 09:04:18;;;;;;;13.50;11.90;;;25.40;97.20;;;;;;1721262;28;20221;-76
2022/08/29 09:05:24;;;;;;;11.52;10.43;;;25.40;97.20;;;;;;1721219;28;20201;-75
2022/08/29 09:06:31;;;;;;;11.05;9.63;;;25.40;97.20;;;;;;1721279;28;20280;-75
2022/08/29 09:07:38;;;;;;;12.27;10.00;;;25.40;97.20;;;;;;1720935;28;20210;-76
2022/08/29 09:08:40;;;;;;;13.30;12.15;;;25.50;97.20;;;;;;1721228;28;20723;-76
2022/08/29 09:09:44;;;;;;;12.85;11.27;;;25.50;97.20;;;;;;1721294;28;20216;-76
2022/08/29 09:10:43;;;;;;;11.48;10.38;;;25.50;97.20;;;;;;1725108;28;20223;-76
2022/08/29 09:11:40;;;;;;;12.88;11.77;;;25.60;97.20;;;;;;1727577;28;20618;-76
2022/08/29 09:12:45;;;;;;;12.30;10.45;;;25.60;97.20;;;;;;1727968;28;20204;-76
2022/08/29 09:13:51;;;;;;;10.60;9.50;;;25.60;97.20;;;;;;1727882;28;20205;-76
2022/08/29 09:14:57;;;;;;;9.40;8.40;;;25.70;97.20;;;;;;1727760;28;20228;-76
2022/08/29 09:15:52;;;;;;;8.80;8.00;;;25.70;97.20;;;;;;1727852;28;20205;-76
2022/08/29 09:16:50;;;;;;;10.27;9.32;;;25.80;97.20;;;;;;1727887;28;20668;-76
2022/08/29 09:17:46;;;;;;;10.60;8.38;;;25.80;97.20;;;;;;1727644;28;20220;-76
2022/08/29 09:18:40;;;;;;;10.35;9.35;;;25.80;97.20;;;;;;1727449;28;20225;-77
2022/08/29 09:19:31;;;;;;;11.30;9.23;;;25.90;97.20;;;;;;1727708;28;20581;-76
2022/08/29 09:20:27;;;;;;;10.90;9.87;;;25.90;97.20;;;;;;1727905;28;20299;-76
2022/08/29 09:21:21;;;;;;;10.13;9.13;;;25.90;97.20;;;;;;1727899;28;20447;-76
2022/08/29 09:22:23;;;;;;;10.60;9.70;;;26.00;97.20;;;;;;1727775;28;20208;-76
2022/08/29 09:23:23;;;;;;;11.00;10.00;;;26.00;97.20;;;;;;1727872;28;20204;-76
2022/08/29 09:24:22;;;;;;;8.10;7.40;;;26.00;97.20;;;;;;1727836;28;20228;-76
2022/08/29 09:25:16;;;;;;;9.15;7.30;;;26.10;97.20;;;;;;1727828;28;20255;-76
2022/08/29 09:26:07;;;;;;;8.48;7.25;;;26.10;97.20;;;;;;1727732;28;20216;-76
2022/08/29 09:27:07;;;;;;;8.18;7.30;;;26.10;97.20;;;;;;1727850;28;20221;-76
2022/08/29 09:27:59;;;;;;;7.47;6.78;;;26.10;97.20;;;;;;1727686;28;20208;-76
2022/08/29 09:28:51;;;;;;;6.53;5.65;;;26.20;97.20;;;;;;1727458;28;20580;-76
2022/08/29 09:29:42;;;;;;;7.07;6.35;;;26.20;97.20;;;;;;1727705;28;20211;-76
2022/08/29 09:30:36;;;;;;;7.97;6.10;;;26.30;97.20;;;;;;1727841;28;20718;-76
2022/08/29 09:31:31;;;;;;;6.70;6.10;;;26.30;97.20;;;;;;1727580;28;20205;-76
2022/08/29 09:32:23;;;;;;;8.98;5.93;;;26.40;97.20;;;;;;1727831;28;20231;-76
2022/08/29 09:33:15;;;;;;;6.97;5.80;;;26.40;97.20;;;;;;1727874;28;20216;-76
2022/08/29 09:34:10;;;;;;;6.50;6.00;;;26.50;97.20;;;;;;1727726;28;20235;-76
2022/08/29 09:35:18;;;;;;;7.22;6.00;;;26.50;97.20;;;;;;1727788;28;20209;-76
2022/08/29 09:36:12;;;;;;;6.30;5.70;;;26.60;97.20;;;;;;1727357;28;20200;-76
2022/08/29 09:37:14;;;;;;;9.05;6.85;;;26.60;97.20;;;;;;1727251;28;20345;-76
2022/08/29 09:38:09;;;;;;;7.57;5.85;;;26.70;97.20;;;;;;1727745;28;20204;-75